createdAt,value
2022-10-14T00:01:35.651Z,16.90
2022-10-14T00:04:03.136Z,15.43
2022-10-14T00:06:31.909Z,15.60
2022-10-14T00:09:00.956Z,14.50
2022-10-14T00:11:29.675Z,14.97
2022-10-14T00:14:00.163Z,16.97
2022-10-14T00:16:28.907Z,14.27
2022-10-14T00:18:56.349Z,14.30
2022-10-14T00:21:24.138Z,17.90
2022-10-14T00:23:51.689Z,16.03
2022-10-14T00:26:20.004Z,12.00
2022-10-14T00:28:47.864Z,15.23
2022-10-14T00:31:17.133Z,14.27
2022-10-14T00:33:47.978Z,12.67
2022-10-14T00:36:17.153Z,16.03
2022-10-14T00:38:45.342Z,15.73
2022-10-14T00:41:14.975Z,16.57
2022-10-14T00:43:54.249Z,15.40
2022-10-14T00:46:23.319Z,17.10
2022-10-14T00:48:56.733Z,14.70
2022-10-14T00:51:24.261Z,16.50
2022-10-14T00:53:52.722Z,15.47
2022-10-14T00:56:23.684Z,13.80
2022-10-14T00:58:51.708Z,13.67
2022-10-14T01:01:19.312Z,15.10
2022-10-14T01:03:48.544Z,13.33
2022-10-14T01:06:21.905Z,14.27
2022-10-14T01:08:52.910Z,16.53
2022-10-14T01:11:24.188Z,18.80
2022-10-14T01:13:52.781Z,14.00
2022-10-14T01:16:22.656Z,13.27
2022-10-14T01:19:07.698Z,14.73
2022-10-14T01:21:37.766Z,15.70
2022-10-14T01:24:14.793Z,12.53
2022-10-14T01:27:01.638Z,14.23
2022-10-14T01:29:44.173Z,12.70
2022-10-14T01:32:14.431Z,13.20
2022-10-14T01:34:43.503Z,13.97
2022-10-14T01:37:14.091Z,11.37
2022-10-14T01:39:43.229Z,12.57
2022-10-14T01:42:12.556Z,11.93
2022-10-14T01:44:41.887Z,12.00
2022-10-14T01:47:13.057Z,14.33
2022-10-14T01:49:44.774Z,16.40
2022-10-14T01:52:14.822Z,12.20
2022-10-14T01:54:43.860Z,12.60
2022-10-14T01:57:14.173Z,14.93
2022-10-14T01:59:42.511Z,12.90
2022-10-14T02:02:11.590Z,13.60
2022-10-14T02:04:41.367Z,15.00
2022-10-14T02:07:10.061Z,12.07
2022-10-14T02:09:41.747Z,14.73
2022-10-14T02:12:14.385Z,13.93
2022-10-14T02:14:45.555Z,13.17
2022-10-14T02:17:18.541Z,12.10
2022-10-14T02:19:48.661Z,12.43
2022-10-14T02:22:21.518Z,11.73
2022-10-14T02:24:52.375Z,11.47
2022-10-14T02:27:21.107Z,10.20
2022-10-14T02:29:49.836Z,12.43
2022-10-14T02:32:20.367Z,12.90
2022-10-14T02:34:52.518Z,10.70
2022-10-14T02:37:20.630Z,14.07
2022-10-14T02:39:53.053Z,12.17
2022-10-14T02:42:20.743Z,11.13
2022-10-14T02:44:55.105Z,12.27
2022-10-14T02:47:24.322Z,12.57
2022-10-14T02:49:52.476Z,15.23
2022-10-14T02:52:20.572Z,15.60
2022-10-14T02:54:48.463Z,13.67
2022-10-14T02:57:15.897Z,13.53
2022-10-14T02:59:43.379Z,13.53
2022-10-14T03:02:10.945Z,14.17
2022-10-14T03:04:42.826Z,13.83
2022-10-14T03:07:11.489Z,12.80
2022-10-14T03:09:44.693Z,12.40
2022-10-14T03:12:12.287Z,17.50
2022-10-14T03:14:39.851Z,11.57
2022-10-14T03:17:10.281Z,13.53
2022-10-14T03:19:37.757Z,15.17
2022-10-14T03:22:06.606Z,16.63
2022-10-14T03:24:35.478Z,11.57
2022-10-14T03:27:32.596Z,11.43
2022-10-14T03:30:06.050Z,13.57
2022-10-14T03:32:37.655Z,14.07
2022-10-14T03:35:23.649Z,9.83
2022-10-14T03:37:55.721Z,11.77
2022-10-14T03:40:29.656Z,31.53
2022-10-14T03:43:01.144Z,20.30
2022-10-14T03:45:35.537Z,18.10
2022-10-14T03:48:04.520Z,16.87
2022-10-14T03:50:32.010Z,18.10
2022-10-14T03:53:01.452Z,13.43
2022-10-14T03:55:35.806Z,13.70
2022-10-14T03:58:05.317Z,16.97
2022-10-14T04:00:33.452Z,14.20
2022-10-14T04:03:27.870Z,11.80
2022-10-14T04:05:56.511Z,15.17
2022-10-14T04:08:28.022Z,13.27
2022-10-14T04:11:18.773Z,12.83
2022-10-14T04:13:48.206Z,13.17
2022-10-14T04:16:15.757Z,14.47
2022-10-14T04:18:59.804Z,9.43
2022-10-14T04:21:27.413Z,10.23
2022-10-14T04:23:56.430Z,10.63
2022-10-14T04:26:36.179Z,8.87
2022-10-14T04:29:04.976Z,8.10
2022-10-14T04:31:43.361Z,8.57
2022-10-14T04:34:12.023Z,9.20
2022-10-14T04:36:41.158Z,11.23
2022-10-14T04:39:23.815Z,10.53
2022-10-14T04:41:51.388Z,12.13
2022-10-14T04:44:21.265Z,12.80
2022-10-14T04:46:52.230Z,10.97
2022-10-14T04:49:23.144Z,11.30
2022-10-14T04:52:00.730Z,10.30
2022-10-14T04:54:39.856Z,10.37
2022-10-14T04:57:07.571Z,16.10
2022-10-14T04:59:35.589Z,11.27
2022-10-14T05:02:28.968Z,13.00
2022-10-14T05:05:00.788Z,16.67
2022-10-14T05:07:31.948Z,11.43
2022-10-14T05:10:12.142Z,25.23
2022-10-14T05:12:42.786Z,100.93
2022-10-14T05:15:11.710Z,39.57
2022-10-14T05:17:50.939Z,23.00
2022-10-14T05:20:24.023Z,14.47
2022-10-14T05:22:54.978Z,12.40
2022-10-14T05:25:24.129Z,14.53
2022-10-14T05:27:53.636Z,13.87
2022-10-14T05:30:21.480Z,14.90
2022-10-14T05:32:52.685Z,15.47
2022-10-14T05:35:39.829Z,14.57
2022-10-14T05:38:09.088Z,14.40
2022-10-14T05:40:41.806Z,16.87
2022-10-14T05:43:09.595Z,13.93
2022-10-14T05:45:41.573Z,17.87
2022-10-14T05:48:09.477Z,12.07
2022-10-14T05:50:37.296Z,19.43
2022-10-14T05:53:10.053Z,18.80
2022-10-14T05:55:43.611Z,14.87
2022-10-14T05:58:11.632Z,18.73
2022-10-14T06:00:41.843Z,16.27
2022-10-14T06:03:14.651Z,15.67
2022-10-14T06:05:42.283Z,13.27
2022-10-14T06:08:09.955Z,14.17
2022-10-14T06:10:39.223Z,15.43
2022-10-14T06:13:08.200Z,14.20
2022-10-14T06:15:38.251Z,13.33
2022-10-14T06:18:06.447Z,11.77
2022-10-14T06:20:34.016Z,11.27
2022-10-14T06:23:02.195Z,10.80
2022-10-14T06:25:30.003Z,16.73
2022-10-14T06:28:02.332Z,12.63
2022-10-14T06:30:31.159Z,18.60
2022-10-14T06:32:58.816Z,15.10
2022-10-14T06:35:26.346Z,17.03
2022-10-14T06:37:54.387Z,13.10
2022-10-14T06:40:21.962Z,14.90
2022-10-14T06:42:49.408Z,13.50
2022-10-14T06:45:18.099Z,15.60
2022-10-14T06:47:46.955Z,18.67
2022-10-14T06:50:14.379Z,18.23
2022-10-14T06:52:41.811Z,20.47
2022-10-14T06:55:09.345Z,15.37
2022-10-14T06:57:36.782Z,12.37
2022-10-14T07:00:04.831Z,12.77
2022-10-14T07:02:35.783Z,14.10
2022-10-14T07:05:04.700Z,19.47
2022-10-14T07:07:32.390Z,16.17
2022-10-14T07:09:59.825Z,13.53
2022-10-14T07:12:27.777Z,14.37
2022-10-14T07:14:55.533Z,14.10
2022-10-14T07:17:23.349Z,15.93
2022-10-14T07:19:51.136Z,19.87
2022-10-14T07:22:20.734Z,19.47
2022-10-14T07:24:48.356Z,18.17
2022-10-14T07:27:16.927Z,13.63
2022-10-14T07:29:44.384Z,13.70
2022-10-14T07:32:11.810Z,11.50
2022-10-14T07:34:39.228Z,7.87
2022-10-14T07:37:06.744Z,10.00
2022-10-14T07:39:35.511Z,9.87
2022-10-14T07:42:02.956Z,6.83
2022-10-14T07:44:30.383Z,8.43
2022-10-14T07:46:59.152Z,11.70
2022-10-14T07:49:26.621Z,6.40
2022-10-14T07:51:54.031Z,8.80
2022-10-14T07:54:22.575Z,9.10
2022-10-14T07:56:51.368Z,6.80
2022-10-14T07:59:19.592Z,6.73
2022-10-14T08:01:47.152Z,5.63
2022-10-14T08:04:15.150Z,7.27
2022-10-14T08:06:42.622Z,7.33
2022-10-14T08:09:11.350Z,11.13
2022-10-14T08:11:39.054Z,7.27
2022-10-14T08:14:08.187Z,12.23
2022-10-14T08:16:36.002Z,8.77
2022-10-14T08:19:07.551Z,10.83
2022-10-14T08:21:37.250Z,6.93
2022-10-14T08:24:04.957Z,7.13
2022-10-14T08:26:33.808Z,9.20
2022-10-14T08:29:02.143Z,7.83
2022-10-14T08:31:31.522Z,9.40
2022-10-14T08:33:59.001Z,8.70
2022-10-14T08:36:26.668Z,11.27
2022-10-14T08:38:54.789Z,7.30
2022-10-14T08:41:40.245Z,9.97
2022-10-14T08:44:12.093Z,10.40
2022-10-14T08:46:41.648Z,7.23
2022-10-14T08:49:12.828Z,7.10
2022-10-14T08:51:43.143Z,9.40
2022-10-14T08:54:15.194Z,9.37
2022-10-14T08:56:43.765Z,6.60
2022-10-14T08:59:13.869Z,6.30
2022-10-14T09:01:49.081Z,7.00
2022-10-14T09:04:17.105Z,8.97
2022-10-14T09:06:46.211Z,7.57
2022-10-14T09:09:15.817Z,8.37
2022-10-14T09:11:44.959Z,7.30
2022-10-14T09:14:16.479Z,6.83
2022-10-14T09:16:50.363Z,8.90
2022-10-14T09:19:26.537Z,8.13
2022-10-14T09:21:55.010Z,7.77
2022-10-14T09:24:23.250Z,6.57
2022-10-14T09:26:52.761Z,7.73
2022-10-14T09:29:24.560Z,7.30
2022-10-14T09:31:54.220Z,7.53
2022-10-14T09:34:25.629Z,7.10
2022-10-14T09:36:54.265Z,6.80
2022-10-14T09:39:21.778Z,7.73
2022-10-14T09:41:52.392Z,9.53
2022-10-14T09:44:22.471Z,7.00
2022-10-14T09:46:51.930Z,8.63
2022-10-14T09:49:23.390Z,6.60
2022-10-14T09:51:51.875Z,5.63
2022-10-14T09:54:24.266Z,5.80
2022-10-14T09:56:58.687Z,4.00
2022-10-14T09:59:26.182Z,5.17
2022-10-14T10:01:54.775Z,3.13
2022-10-14T10:04:28.733Z,2.80
2022-10-14T10:06:56.458Z,5.37
2022-10-14T10:09:23.890Z,3.43
2022-10-14T10:11:51.360Z,3.60
2022-10-14T10:14:22.823Z,4.60
2022-10-14T10:19:29.021Z,4.37
2022-10-14T10:21:56.709Z,4.43
2022-10-14T10:24:27.314Z,4.40
2022-10-14T10:26:57.630Z,5.93
2022-10-14T10:29:25.913Z,2.23
2022-10-14T10:32:02.289Z,2.50
2022-10-14T10:34:50.421Z,4.93
2022-10-14T10:37:28.034Z,6.20
2022-10-14T10:40:14.479Z,6.03
2022-10-14T10:42:46.343Z,6.30
2022-10-14T10:45:16.961Z,5.00
2022-10-14T10:47:46.480Z,5.60
2022-10-14T10:50:22.286Z,6.20
2022-10-14T10:52:57.013Z,4.50
2022-10-14T10:55:29.568Z,5.67
2022-10-14T10:58:04.875Z,6.37
2022-10-14T11:00:38.973Z,4.90
2022-10-14T11:03:16.607Z,4.93
2022-10-14T11:05:49.793Z,6.43
2022-10-14T11:08:44.332Z,5.50
2022-10-14T11:11:36.795Z,6.50
2022-10-14T11:14:10.512Z,5.60
2022-10-14T11:16:42.650Z,7.53
2022-10-14T11:19:14.666Z,4.93
2022-10-14T11:21:45.113Z,5.57
2022-10-14T11:24:20.202Z,4.40
2022-10-14T11:26:53.517Z,5.20
2022-10-14T11:29:36.210Z,5.37
2022-10-14T11:32:09.081Z,6.67
2022-10-14T11:34:43.219Z,4.90
2022-10-14T11:37:15.344Z,4.13
2022-10-14T11:39:48.678Z,3.93
2022-10-14T11:42:24.752Z,6.20
2022-10-14T11:45:00.461Z,4.90
2022-10-14T11:47:28.998Z,5.67
2022-10-14T11:49:59.141Z,4.37
2022-10-14T11:52:28.482Z,5.00
2022-10-14T11:55:00.525Z,6.37
2022-10-14T11:57:32.704Z,3.93
2022-10-14T12:00:01.804Z,3.27
2022-10-14T12:02:44.064Z,3.20
2022-10-14T12:05:16.089Z,3.57
2022-10-14T12:07:46.113Z,2.80
2022-10-14T12:10:19.776Z,2.37
2022-10-14T12:12:47.283Z,2.80
2022-10-14T12:15:17.114Z,3.63
2022-10-14T12:17:47.256Z,3.17
2022-10-14T12:20:18.241Z,2.63
2022-10-14T12:22:48.471Z,3.33
2022-10-14T12:25:18.703Z,2.50
2022-10-14T12:27:46.585Z,2.63
2022-10-14T12:30:32.410Z,2.50
2022-10-14T12:33:01.297Z,2.20
2022-10-14T12:35:47.589Z,3.03
2022-10-14T12:38:18.802Z,2.30
2022-10-14T12:40:49.337Z,2.67
2022-10-14T12:43:19.048Z,3.47
2022-10-14T12:45:59.725Z,3.73
2022-10-14T12:48:28.791Z,3.97
2022-10-14T12:50:58.529Z,2.77
2022-10-14T12:53:27.434Z,2.90
2022-10-14T12:55:57.599Z,2.90
2022-10-14T12:58:27.370Z,3.27
2022-10-14T13:00:56.354Z,4.47
2022-10-14T13:03:26.399Z,2.03
2022-10-14T13:06:14.737Z,2.47
2022-10-14T13:08:43.507Z,2.50
2022-10-14T13:11:11.319Z,2.30
2022-10-14T13:13:50.158Z,7.27
2022-10-14T13:16:36.499Z,8.67
2022-10-14T13:19:06.046Z,4.90
2022-10-14T13:21:53.602Z,2.63
2022-10-14T13:24:30.406Z,2.53
2022-10-14T13:27:08.764Z,2.43
2022-10-14T13:29:42.021Z,2.27
2022-10-14T13:32:15.941Z,2.07
2022-10-14T13:34:50.665Z,2.50
2022-10-14T13:37:28.810Z,2.47
2022-10-14T13:39:57.811Z,2.10
2022-10-14T13:42:27.142Z,2.50
2022-10-14T13:44:55.447Z,2.70
2022-10-14T13:47:23.124Z,3.53
2022-10-14T13:49:51.505Z,3.00
2022-10-14T13:52:22.156Z,2.57
2022-10-14T13:54:49.751Z,7.73
2022-10-14T14:00:40.277Z,17.13
2022-10-14T14:03:15.376Z,9.13
2022-10-14T14:05:43.213Z,3.03
2022-10-14T14:11:22.038Z,3.23
2022-10-14T14:13:59.979Z,2.60
2022-10-14T14:16:30.716Z,4.43
2022-10-14T14:19:13.846Z,4.80
2022-10-14T14:21:41.309Z,1.83
2022-10-14T14:24:16.463Z,1.97
2022-10-14T14:26:53.310Z,2.47
2022-10-14T14:29:26.551Z,2.70
2022-10-14T14:32:06.143Z,2.23
2022-10-14T14:34:35.699Z,4.37
2022-10-14T14:39:56.741Z,2.40
2022-10-14T14:42:24.765Z,2.30
2022-10-14T14:44:55.865Z,2.17
2022-10-14T14:47:23.753Z,2.40
2022-10-14T14:50:06.207Z,2.90
2022-10-14T14:52:43.557Z,2.70
2022-10-14T14:55:31.066Z,3.53
2022-10-14T14:57:59.011Z,1.70
2022-10-14T15:00:27.845Z,3.00
2022-10-14T15:03:00.132Z,1.63
2022-10-14T15:05:27.607Z,2.47
2022-10-14T15:07:56.046Z,1.90
2022-10-14T15:10:24.997Z,2.47
2022-10-14T15:12:53.907Z,1.90
2022-10-14T15:15:26.633Z,2.53
2022-10-14T15:18:08.684Z,1.77
2022-10-14T15:20:37.110Z,4.00
2022-10-14T15:23:20.596Z,2.30
2022-10-14T15:25:57.115Z,5.73
2022-10-14T15:28:31.582Z,1.30
2022-10-14T15:31:04.669Z,4.60
2022-10-14T15:33:36.110Z,3.20
2022-10-14T15:36:03.809Z,2.07
2022-10-14T15:41:04.473Z,2.47
2022-10-14T15:43:33.764Z,3.10
2022-10-14T15:46:18.813Z,3.10
2022-10-14T15:48:49.815Z,4.40
2022-10-14T15:51:19.520Z,3.77
2022-10-14T15:53:46.943Z,6.10
2022-10-14T15:56:14.415Z,5.17
2022-10-14T15:58:41.883Z,4.83
2022-10-14T16:01:09.753Z,7.97
2022-10-14T16:03:40.889Z,4.90
2022-10-14T16:06:12.012Z,7.93
2022-10-14T16:08:39.548Z,10.70
2022-10-14T16:11:10.465Z,6.87
2022-10-14T16:13:37.929Z,9.20
2022-10-14T16:16:06.594Z,8.70
2022-10-14T16:18:34.027Z,7.63
2022-10-14T16:21:02.305Z,9.17
2022-10-14T16:23:34.326Z,14.47
2022-10-14T16:26:01.864Z,10.83
2022-10-14T16:28:29.345Z,10.37
2022-10-14T16:30:57.046Z,8.53
2022-10-14T16:33:24.504Z,11.40
2022-10-14T16:35:53.525Z,9.23
2022-10-14T16:38:21.076Z,10.57
2022-10-14T16:40:56.043Z,9.00
2022-10-14T16:43:23.489Z,6.87
2022-10-14T16:45:50.901Z,8.00
2022-10-14T16:48:19.326Z,12.13
2022-10-14T16:50:49.816Z,7.87
2022-10-14T16:53:35.176Z,11.13
2022-10-14T16:56:03.969Z,17.20
2022-10-14T16:58:31.405Z,60.53
2022-10-14T17:00:58.943Z,182.83
2022-10-14T17:03:26.398Z,33.97
2022-10-14T17:05:59.682Z,15.93
2022-10-14T17:08:27.143Z,39.90
2022-10-14T17:10:58.053Z,62.83
2022-10-14T17:13:26.941Z,47.00
2022-10-14T17:15:59.169Z,108.87
2022-10-14T17:18:31.013Z,124.03
2022-10-14T17:21:01.369Z,69.97
2022-10-14T17:23:29.619Z,12.73
2022-10-14T17:25:57.422Z,10.17
2022-10-14T17:28:25.436Z,10.23
2022-10-14T17:30:54.350Z,8.60
2022-10-14T17:33:21.783Z,6.53
2022-10-14T17:35:54.856Z,9.60
2022-10-14T17:38:22.279Z,8.40
2022-10-14T17:40:49.737Z,5.60
2022-10-14T17:43:17.805Z,7.10
2022-10-14T17:45:45.234Z,9.00
2022-10-14T17:48:17.128Z,7.37
2022-10-14T17:50:47.561Z,7.67
2022-10-14T17:53:15.654Z,5.90
2022-10-14T17:55:43.089Z,6.73
2022-10-14T17:58:10.786Z,9.73
2022-10-14T18:00:38.274Z,6.53
2022-10-14T18:03:08.420Z,10.93
2022-10-14T18:05:38.091Z,10.47
2022-10-14T18:08:05.693Z,12.43
2022-10-14T18:10:33.119Z,13.87
2022-10-14T18:13:00.567Z,14.63
2022-10-14T18:15:28.225Z,21.37
2022-10-14T18:17:57.124Z,17.73
2022-10-14T18:20:24.583Z,15.87
2022-10-14T18:22:54.585Z,17.57
2022-10-14T18:25:22.023Z,16.33
2022-10-14T18:27:49.433Z,18.13
2022-10-14T18:30:16.863Z,16.80
2022-10-14T18:32:44.314Z,15.87
2022-10-14T18:35:12.137Z,15.70
2022-10-14T18:37:39.924Z,16.50
2022-10-14T18:40:09.739Z,15.93
2022-10-14T18:42:37.175Z,16.60
2022-10-14T18:45:04.945Z,14.23
2022-10-14T18:47:32.503Z,13.77
2022-10-14T18:50:00.214Z,18.67
2022-10-14T18:52:27.733Z,13.83
2022-10-14T18:54:55.586Z,14.00
2022-10-14T18:57:24.823Z,13.73
2022-10-14T18:59:53.036Z,15.13
2022-10-14T19:02:21.025Z,13.07
2022-10-14T19:04:48.628Z,15.70
2022-10-14T19:07:16.948Z,14.70
2022-10-14T19:09:44.653Z,13.53
2022-10-14T19:12:29.497Z,13.97
2022-10-14T19:14:58.312Z,18.67
2022-10-14T19:17:25.735Z,16.83
2022-10-14T19:19:53.331Z,19.83
2022-10-14T19:22:21.014Z,16.77
2022-10-14T19:24:48.650Z,18.93
2022-10-14T19:27:16.092Z,17.10
2022-10-14T19:29:43.542Z,16.93
2022-10-14T19:32:12.324Z,18.83
2022-10-14T19:34:42.611Z,17.00
2022-10-14T19:37:14.050Z,16.77
2022-10-14T19:39:41.648Z,18.83
2022-10-14T19:42:09.237Z,21.43
2022-10-14T19:44:36.942Z,19.17
2022-10-14T19:47:04.431Z,16.30
2022-10-14T19:49:33.192Z,15.20
2022-10-14T19:52:00.848Z,14.37
2022-10-14T19:54:28.664Z,17.83
2022-10-14T19:56:56.115Z,12.87
2022-10-14T19:59:23.592Z,12.03
2022-10-14T20:01:51.097Z,13.63
2022-10-14T20:04:20.795Z,16.27
2022-10-14T20:06:51.527Z,14.73
2022-10-14T20:09:18.929Z,12.67
2022-10-14T20:11:46.370Z,12.67
2022-10-14T20:14:14.463Z,12.37
2022-10-14T20:16:42.079Z,12.90
2022-10-14T20:19:09.645Z,11.90
2022-10-14T20:21:37.065Z,12.97
2022-10-14T20:24:06.702Z,12.80
2022-10-14T20:26:34.349Z,11.13
2022-10-14T20:29:01.932Z,9.03
2022-10-14T20:31:29.421Z,11.60
2022-10-14T20:33:56.958Z,9.43
2022-10-14T20:36:24.705Z,9.20
2022-10-14T20:38:52.153Z,10.73
2022-10-14T20:41:22.072Z,8.63
2022-10-14T20:43:49.725Z,10.83
2022-10-14T20:46:17.596Z,8.57
2022-10-14T20:48:45.193Z,11.93
2022-10-14T20:51:13.888Z,8.87
2022-10-14T20:56:14.218Z,9.53
2022-10-14T20:58:43.058Z,11.57
2022-10-14T21:01:11.410Z,12.97
2022-10-14T21:03:39.818Z,10.50
2022-10-14T21:06:08.140Z,9.63
2022-10-14T21:08:35.941Z,12.17
2022-10-14T21:11:05.497Z,9.07
2022-10-14T21:13:34.451Z,11.73
2022-10-14T21:16:03.558Z,11.33
2022-10-14T21:18:31.065Z,10.20
2022-10-14T21:21:01.242Z,10.23
2022-10-14T21:23:28.803Z,10.27
2022-10-14T21:25:56.921Z,10.17
2022-10-14T21:28:24.533Z,9.87
2022-10-14T21:30:52.025Z,10.27
2022-10-14T21:33:20.784Z,12.27
2022-10-14T21:35:48.273Z,13.60
2022-10-14T21:38:15.783Z,12.07
2022-10-14T21:40:43.707Z,10.23
2022-10-14T21:43:11.235Z,12.83
2022-10-14T21:45:38.695Z,12.67
2022-10-14T21:48:06.719Z,14.13
2022-10-14T21:50:35.502Z,13.73
2022-10-14T21:53:02.902Z,13.03
2022-10-14T21:55:30.629Z,9.93
2022-10-14T21:57:58.149Z,11.80
2022-10-14T22:00:25.589Z,10.47
2022-10-14T22:02:54.002Z,10.03
2022-10-14T22:05:21.821Z,11.90
2022-10-14T22:07:50.584Z,11.93
2022-10-14T22:10:35.422Z,8.97
2022-10-14T22:13:02.844Z,11.90
2022-10-14T22:15:30.396Z,12.40
2022-10-14T22:17:57.832Z,11.47
2022-10-14T22:20:25.264Z,10.43
2022-10-14T22:22:54.733Z,10.33
2022-10-14T22:25:22.227Z,11.23
2022-10-14T22:27:49.849Z,9.93
2022-10-14T22:30:17.409Z,12.23
2022-10-14T22:32:44.969Z,10.67
2022-10-14T22:35:12.405Z,9.47
2022-10-14T22:37:39.837Z,9.33
2022-10-14T22:40:09.410Z,11.23
2022-10-14T22:42:39.161Z,10.80
2022-10-14T22:45:10.184Z,9.63
2022-10-14T22:47:37.904Z,9.87
2022-10-14T22:50:05.638Z,11.67
2022-10-14T22:52:33.085Z,11.53
2022-10-14T22:55:00.531Z,8.93
2022-10-14T22:57:29.406Z,10.73
2022-10-14T22:59:56.851Z,10.30
2022-10-14T23:02:24.576Z,8.73
2022-10-14T23:04:52.412Z,10.90
2022-10-14T23:07:19.967Z,12.87
2022-10-14T23:09:47.429Z,8.73
2022-10-14T23:12:14.873Z,11.30
2022-10-14T23:14:43.657Z,8.53
2022-10-14T23:17:11.136Z,9.23
2022-10-14T23:19:38.711Z,8.80
2022-10-14T23:22:06.477Z,11.80
2022-10-14T23:24:33.908Z,8.67
2022-10-14T23:27:01.321Z,9.00
2022-10-14T23:29:28.915Z,9.47
2022-10-14T23:31:58.077Z,9.63
2022-10-14T23:34:25.618Z,9.17
2022-10-14T23:39:25.503Z,8.00
2022-10-14T23:41:52.938Z,9.47
2022-10-14T23:44:20.468Z,11.50
2022-10-14T23:46:47.894Z,11.60
2022-10-14T23:49:28.209Z,11.20
2022-10-14T23:51:56.650Z,10.50
2022-10-14T23:54:24.253Z,11.93
2022-10-14T23:56:51.834Z,11.40
2022-10-14T23:59:19.262Z,12.27
